Olivet, Iowa
Current Conditions -  °F | °C
As of 3:55 AM on Monday 22 Dec 2014 (Local Time) from KPEA Reporting Station
Moderate Rain Moderate Rain  
Wind Chill: 32°   Ceiling: 1400
Heat Index: 39°   Visibility: 7mi
Dew Point: 37°   Wind: 12mph
Humidity: 91%   Direction: 140°SE
Pressure: 29.73"   Gusts: 17mph
Location:  41.3761°N, 92.8159°W
Report Text: KPEA 220955Z AUTO 14010G15KT 7SM RA BKN014 BKN024 BKN037 04/03 A2973 RMK AO2 T00380025
Loading
Personal Weather Stations






























Interactive Weather Map New forecast layout! Learn more

10-Day Weather Forecast

Advertisements
Track Severe Weather on mobile